YFCK weather

Fish Creek Airport
Victoria, Australia

Public forecast

Using degrees Celsius for public forecast. Weather courtesy of forecast.io.

METAR (pilot weather report)

Closest report is Melbourne Essendon Airport, 80.4 nm (148.8 km) NW. Retrieved 2019/03/25 13:00 UTC (27 minutes ago):

YMEN 251300Z AUTO 34006KT 9999 // NCD 11/01 Q1014

TAF (pilot weather forecast)

Closest forecast is Melbourne International Airport, 84.7 nm (156.8 km) NW. Retrieved 2019/03/25 12:35 UTC (52 minutes ago):

TAF YMML 251113Z 2512/2618 29012KT CAVOK FM252300 25014KT 9999 SCT045 FM260700 19008KT 9999 SCT040 FM261300 31008KT 9999 SCT040